SCON weather

Quellón Airport
Quellon, Los Lagos Region, Chile

Public forecast

Using degrees Celsius for public forecast. Weather courtesy of forecast.io.

METAR (pilot weather report)

Retrieved 2019/04/20 04:00 UTC (27 minutes ago):

SCON 200400Z AUTO VRB02KT CAVOK 03/03 Q1020

TAF (pilot weather forecast)

Forecast is more than 12 hours old.

Closest forecast is Chaitén Airport, 42.9 nm (79.4 km) ENE. Retrieved 2018/09/16 12:33 UTC (7 months ago):

TAF SPJL 161124Z 1612/1712 VRB04KT 9999 FEW020LVA0551 161131 GG KWBCYMYX MPZZMAMX 161130 SCSCYZYX SPCH03 SCTN 161130 SPECI SCTN 161130Z 36020G31KT +RA SCT013 OVC017 11/09 Q1009